Time;durP1;ratioP1;P1;durP2;ratioP2;P2;SDS_P1;SDS_P2;PMS_P1;PMS_P2;Temp;Humidity;BMP_temperature;BMP_pressure;BME280_temperature;BME280_humidity;BME280_pressure;Samples;Min_cycle;Max_cycle;Signal;HPM_P1;HPM_P2
2022/12/25 00:01:09;;;;;;;147.85;84.85;;;;;;;5.24;90.25;94309.03;1739546;81;21459;-43
2022/12/25 00:03:37;;;;;;;150.47;85.15;;;;;;;5.21;89.87;94311.85;1735258;82;20978;-44
2022/12/25 00:06:04;;;;;;;147.13;84.28;;;;;;;5.11;89.75;94315.56;1733141;81;21198;-45
2022/12/25 00:08:31;;;;;;;145.55;83.37;;;;;;;5.04;89.68;94320.39;1702107;83;21015;-44
2022/12/25 00:11:05;;;;;;;145.60;78.87;;;;;;;5.00;89.84;94319.71;1696958;83;21108;-43
2022/12/25 00:13:32;;;;;;;132.20;73.20;;;;;;;4.98;90.04;94326.94;1706072;83;21098;-44
2022/12/25 00:15:58;;;;;;;120.20;68.45;;;;;;;4.98;90.22;94334.36;1701742;83;21010;-45
2022/12/25 00:18:25;;;;;;;104.30;61.98;;;;;;;4.95;90.17;94338.69;1692055;83;22068;-42
2022/12/25 00:21:00;;;;;;;96.85;56.53;;;;;;;4.94;90.44;94345.33;1672107;83;21022;-43
2022/12/25 00:23:27;;;;;;;78.92;45.83;;;;;;;4.93;90.44;94347.88;1711472;83;21014;-44
2022/12/25 00:25:54;;;;;;;72.40;43.65;;;;;;;4.92;90.28;94351.79;1709898;83;21001;-43
2022/12/25 00:28:22;;;;;;;64.70;39.50;;;;;;;4.91;90.56;94357.07;1704933;83;21730;-44
2022/12/25 00:30:49;;;;;;;52.65;33.58;;;;;;;4.92;90.81;94366.78;1701393;83;22055;-43
2022/12/25 00:33:16;;;;;;;102.47;59.25;;;;;;;4.96;91.09;94366.11;1706545;83;21020;-43
2022/12/25 00:35:42;;;;;;;243.30;120.50;;;;;;;4.99;90.97;94373.44;1704511;83;21085;-44
2022/12/25 00:38:09;;;;;;;140.57;76.50;;;;;;;4.92;90.69;94370.09;1708597;83;21111;-43
2022/12/25 00:40:43;;;;;;;100.12;56.73;;;;;;;4.88;90.70;94374.27;1699188;83;21099;-44
2022/12/25 00:43:09;;;;;;;61.15;36.83;;;;;;;4.92;91.10;94375.53;1707759;83;21170;-43
2022/12/25 00:45:36;;;;;;;210.00;111.62;;;;;;;4.95;91.04;94382.29;1709886;83;20975;-43
2022/12/25 00:48:03;;;;;;;180.63;98.52;;;;;;;4.93;90.87;94387.39;1683688;83;20990;-44
2022/12/25 00:50:30;;;;;;;231.78;125.87;;;;;;;4.92;91.11;94397.34;1701562;83;21011;-43
2022/12/25 00:52:57;;;;;;;127.65;73.85;;;;;;;4.89;90.76;94392.16;1701590;83;21148;-44
2022/12/25 00:55:24;;;;;;;215.82;114.40;;;;;;;4.86;91.21;94397.08;1755685;80;21204;-43
2022/12/25 00:57:51;;;;;;;166.88;94.15;;;;;;;4.87;91.34;94397.25;1765761;79;21018;-43
2022/12/25 01:00:19;;;;;;;180.82;104.47;;;;;;;4.84;91.03;94394.01;1721059;82;20981;-43
2022/12/25 01:02:46;;;;;;;184.03;102.70;;;;;;;4.82;91.22;94395.61;1709692;83;21093;-45
2022/12/25 01:05:14;;;;;;;210.75;109.50;;;;;;;4.79;91.35;94398.56;1775895;80;20942;-45
2022/12/25 01:07:41;;;;;;;184.80;103.87;;;;;;;4.79;91.27;94401.28;1767036;80;21233;-47
2022/12/25 01:10:22;;;;;;;165.35;88.87;;;;;;;4.74;91.10;94400.42;1761295;80;21046;-43
2022/12/25 01:12:50;;;;;;;150.18;83.62;;;;;;;4.70;91.38;94398.36;1744894;80;21584;-43
2022/12/25 01:15:17;;;;;;;138.45;83.78;;;;;;;4.73;91.65;94400.83;1756182;80;20965;-44
2022/12/25 01:17:44;;;;;;;129.55;72.05;;;;;;;4.76;91.73;94403.49;1762224;79;21615;-43
2022/12/25 01:20:12;;;;;;;111.40;55.38;;;;;;;4.74;91.98;94394.97;1717239;81;21237;-43
2022/12/25 01:22:39;;;;;;;137.52;67.60;;;;;;;4.73;92.10;94393.44;1733290;81;21071;-44
2022/12/25 01:25:08;;;;;;;109.65;57.95;;;;;;;4.76;92.28;94389.87;1745820;81;21004;-44
2022/12/25 01:27:35;;;;;;;117.05;60.43;;;;;;;4.75;92.32;94400.59;1763179;80;21013;-42
2022/12/25 01:30:02;;;;;;;121.82;60.35;;;;;;;4.78;92.18;94400.36;1730911;81;21008;-44
2022/12/25 01:32:29;;;;;;;114.90;60.10;;;;;;;4.79;92.29;94399.92;1703705;83;21166;-44
2022/12/25 01:34:56;;;;;;;119.30;56.83;;;;;;;4.86;92.88;94409.34;1701186;83;20985;-44
2022/12/25 01:37:24;;;;;;;113.85;60.20;;;;;;;4.91;92.78;94414.88;1744812;80;20977;-44
2022/12/25 01:39:50;;;;;;;125.67;61.25;;;;;;;4.94;92.79;94414.82;1714165;82;20980;-43
2022/12/25 01:42:19;;;;;;;97.65;53.52;;;;;;;4.98;92.31;94422.33;1732456;80;21104;-44
2022/12/25 01:44:51;;;;;;;105.78;56.50;;;;;;;4.99;91.83;94421.75;1753869;79;21206;-43
2022/12/25 01:47:20;;;;;;;115.32;59.38;;;;;;;4.94;91.78;94427.09;1768667;80;20951;-43
2022/12/25 01:49:48;;;;;;;104.78;55.58;;;;;;;4.98;92.29;94433.23;1772159;79;21027;-43
2022/12/25 01:52:18;;;;;;;117.95;61.60;;;;;;;5.02;92.37;94434.53;1758987;80;21029;-43
2022/12/25 01:54:57;;;;;;;94.87;49.42;;;;;;;5.05;92.24;94434.48;1767905;80;21322;-42
2022/12/25 01:57:28;;;;;;;100.00;52.30;;;;;;;5.02;91.71;94425.78;1769269;80;21256;-43
2022/12/25 01:59:55;;;;;;;89.70;49.55;;;;;;;4.98;91.92;94423.69;1760950;79;21435;-44
2022/12/25 02:02:22;;;;;;;84.87;44.27;;;;;;;4.99;91.95;94431.29;1730964;82;21455;-42
2022/12/25 02:05:06;;;;;;;79.12;44.15;;;;;;;5.01;92.21;94429.66;1735809;81;21018;-42
2022/12/25 02:07:35;;;;;;;84.75;43.85;;;;;;;5.08;92.31;94434.21;1627877;87;21061;-43
2022/12/25 02:10:04;;;;;;;65.20;32.05;;;;;;;5.14;92.20;94430.58;1632833;87;21236;-43
2022/12/25 02:12:32;;;;;;;53.35;29.10;;;;;;;5.21;91.91;94436.49;1629653;87;21045;-44
2022/12/25 02:15:10;;;;;;;55.92;29.10;;;;;;;5.26;91.56;94442.98;1622203;88;21093;-43
2022/12/25 02:18:04;;;;;;;67.80;36.53;;;;;;;5.32;91.45;94435.08;1579522;90;21121;-43
2022/12/25 02:21:06;;;;;;;60.17;32.53;;;;;;;5.36;91.35;94433.05;1539578;92;21091;-44
2022/12/25 02:23:51;;;;;;;78.47;41.88;;;;;;;5.43;91.07;94444.58;1501563;93;21277;-44
2022/12/25 02:26:49;;;;;;;80.60;41.37;;;;;;;5.47;90.62;94445.30;1493774;94;21066;-42
2022/12/25 02:29:30;;;;;;;64.85;34.30;;;;;;;5.48;90.17;94445.47;1517780;94;21099;-43
2022/12/25 02:32:01;;;;;;;56.75;33.25;;;;;;;5.50;89.86;94451.85;1490639;95;21622;-42
2022/12/25 02:34:52;;;;;;;73.62;41.05;;;;;;;5.54;90.08;94455.27;1499136;93;21219;-42
2022/12/25 02:37:48;;;;;;;72.40;41.20;;;;;;;5.58;90.05;94455.98;1504870;93;21276;-43
2022/12/25 02:40:26;;;;;;;72.62;39.45;;;;;;;5.59;89.65;94455.55;1507047;93;21622;-43
2022/12/25 03:08:37;;;;;;;106.00;46.25;;;;;;;5.43;89.58;94469.73;1677154;84;21027;-46
2022/12/25 03:16:49;;;;;;;78.30;40.60;;;;;;;5.45;89.03;94474.18;1682270;83;21032;-43
2022/12/25 03:27:26;;;;;;;55.92;32.35;;;;;;;5.53;88.98;94489.98;1553684;91;21278;-43
2022/12/25 03:33:02;;;;;;;47.75;27.48;;;;;;;5.49;88.74;94494.75;1642785;86;22202;-42
2022/12/25 03:35:57;;;;;;;50.48;27.45;;;;;;;5.42;88.92;94498.20;1645994;85;21169;-44
2022/12/25 04:37:45;;;;;;;26.57;17.73;;;;;;;5.45;88.79;94554.04;1558792;85;21084;-42
2022/12/25 04:40:12;;;;;;;27.80;18.90;;;;;;;5.52;88.50;94559.37;1680440;84;20936;-44
2022/12/25 04:42:39;;;;;;;21.55;17.17;;;;;;;5.57;88.18;94561.61;1682235;84;21877;-42
2022/12/25 04:45:08;;;;;;;21.62;15.55;;;;;;;5.61;88.00;94554.12;1668377;84;21141;-43
2022/12/25 04:47:36;;;;;;;11.80;9.38;;;;;;;5.68;87.66;94555.94;1665510;84;21147;-43
2022/12/25 04:50:05;;;;;;;25.97;19.40;;;;;;;5.74;87.21;94561.08;1654006;85;21035;-43
2022/12/25 04:52:36;;;;;;;15.15;11.65;;;;;;;5.79;86.73;94564.73;1693701;80;21048;-43
2022/12/25 04:55:04;;;;;;;15.98;11.38;;;;;;;5.81;86.28;94575.98;1771745;79;21142;-42
2022/12/25 04:57:32;;;;;;;21.12;16.70;;;;;;;5.82;86.00;94574.80;1749994;80;20985;-44
2022/12/25 04:59:58;;;;;;;16.70;12.18;;;;;;;5.84;85.95;94571.05;1748945;80;20957;-44
2022/12/25 06:13:51;;;;;;;43.13;26.35;;;;;;;4.88;82.69;94635.11;1812221;77;26903;-43
2022/12/25 06:16:18;;;;;;;12.60;9.73;;;;;;;4.75;82.94;94638.25;1789317;78;21609;-43
2022/12/25 06:18:48;;;;;;;15.20;10.53;;;;;;;4.71;83.42;94638.30;1794432;79;21139;-43
2022/12/25 06:21:15;;;;;;;52.85;32.53;;;;;;;4.72;83.58;94637.69;1798610;78;20944;-44
2022/12/25 06:23:42;;;;;;;30.32;20.00;;;;;;;4.65;83.64;94643.25;1788472;79;20955;-45
2022/12/25 06:26:15;;;;;;;26.07;17.30;;;;;;;4.60;83.88;94645.08;1796185;78;21172;-44
2022/12/25 06:28:42;;;;;;;30.65;20.92;;;;;;;4.57;84.16;94646.66;1798732;78;21517;-43
2022/12/25 06:31:13;;;;;;;38.13;25.88;;;;;;;4.53;84.28;94654.70;1787951;79;22116;-43
2022/12/25 06:33:39;;;;;;;29.63;19.80;;;;;;;4.51;84.70;94657.84;1817518;78;21501;-43
2022/12/25 06:36:08;;;;;;;51.18;33.50;;;;;;;4.55;85.13;94660.50;1769521;79;21065;-43
2022/12/25 06:38:35;;;;;;;47.43;30.23;;;;;;;4.60;85.24;94657.34;1793864;78;21044;-44
2022/12/25 06:41:10;;;;;;;40.38;25.75;;;;;;;4.67;85.27;94676.30;1785626;79;21029;-43
2022/12/25 06:43:37;;;;;;;45.28;28.83;;;;;;;4.71;85.41;94676.44;1686243;84;21266;-45
2022/12/25 06:46:07;;;;;;;54.03;33.05;;;;;;;4.74;85.38;94681.06;1668041;85;21052;-44
2022/12/25 06:48:34;;;;;;;72.78;44.35;;;;;;;4.78;85.62;94684.50;1670229;84;21066;-42
2022/12/25 06:51:01;;;;;;;60.12;38.10;;;;;;;4.86;85.43;94694.13;1673777;85;21136;-42
2022/12/25 06:53:29;;;;;;;54.27;39.40;;;;;;;4.90;85.51;94690.75;1578860;88;21089;-43
2022/12/25 06:56:07;;;;;;;92.53;52.30;;;;;;;5.00;85.66;94694.50;1582743;89;21200;-43
2022/12/25 06:58:34;;;;;;;79.75;49.48;;;;;;;5.09;85.32;94694.73;1578472;89;21065;-44
2022/12/25 07:01:13;;;;;;;242.65;112.52;;;;;;;5.18;85.15;94697.73;1591765;89;21022;-43
2022/12/25 07:03:36;;;;;;;118.10;57.83;;;;;;;5.25;85.00;94705.20;1567792;90;21112;-42
2022/12/25 07:06:04;;;;;;;334.15;139.05;;;;;;;5.28;84.58;94705.13;1569457;89;21593;-44
2022/12/25 07:08:33;;;;;;;320.97;133.07;;;;;;;5.29;84.58;94716.25;1557852;89;21113;-42
2022/12/25 07:11:00;;;;;;;321.32;151.20;;;;;;;5.36;84.54;94718.06;1565074;90;21107;-44
2022/12/25 07:13:27;;;;;;;266.55;127.50;;;;;;;5.44;84.22;94718.14;1561489;90;21171;-43
2022/12/25 07:15:58;;;;;;;268.12;124.35;;;;;;;5.47;83.93;94724.13;1551612;90;21073;-44
2022/12/25 07:18:25;;;;;;;373.87;172.70;;;;;;;5.49;83.70;94723.12;1590697;88;22351;-43
2022/12/25 07:20:54;;;;;;;308.63;137.95;;;;;;;5.45;83.65;94721.05;1604448;87;21952;-44
2022/12/25 07:23:21;;;;;;;247.02;113.95;;;;;;;5.48;83.62;94732.49;1595363;87;21015;-44
2022/12/25 07:25:57;;;;;;;174.70;85.15;;;;;;;5.50;83.49;94727.39;1615266;87;21201;-43
2022/12/25 07:28:24;;;;;;;144.57;74.55;;;;;;;5.52;83.25;94730.47;1558801;90;21029;-45
2022/12/25 07:30:51;;;;;;;153.55;83.82;;;;;;;5.54;83.11;94730.82;1567695;89;21027;-42
2022/12/25 07:33:18;;;;;;;146.07;81.72;;;;;;;5.57;83.50;94734.87;1566964;91;21267;-46
2022/12/25 07:35:45;;;;;;;112.52;65.87;;;;;;;5.62;83.24;94738.48;1565299;91;21110;-44
2022/12/25 07:38:12;;;;;;;119.37;71.53;;;;;;;5.65;83.27;94743.13;1575992;90;21520;-43
2022/12/25 07:40:39;;;;;;;118.50;74.32;;;;;;;5.69;83.15;94753.97;1546540;89;21065;-44
2022/12/25 07:43:06;;;;;;;108.63;63.20;;;;;;;5.71;82.96;94755.68;1616325;86;21082;-44
2022/12/25 07:45:33;;;;;;;116.95;68.70;;;;;;;5.72;82.85;94753.12;1603675;87;21642;-44
2022/12/25 07:48:00;;;;;;;120.40;67.67;;;;;;;5.72;82.79;94753.91;1615790;88;21052;-44
2022/12/25 07:50:27;;;;;;;92.57;51.63;;;;;;;5.69;83.04;94761.57;1605999;88;21099;-43
2022/12/25 07:52:55;;;;;;;120.45;67.22;;;;;;;5.75;83.47;94755.80;1607712;88;21671;-43
2022/12/25 07:55:22;;;;;;;104.30;61.37;;;;;;;5.79;83.58;94759.88;1605226;88;21057;-44
2022/12/25 07:57:49;;;;;;;123.45;75.70;;;;;;;5.84;83.36;94767.59;1605831;88;21208;-43
2022/12/25 08:00:18;;;;;;;117.50;70.10;;;;;;;5.87;83.36;94774.94;1623345;84;21138;-44
2022/12/25 08:02:50;;;;;;;113.03;68.70;;;;;;;5.94;83.30;94779.69;1634369;85;20993;-44
2022/12/25 08:05:17;;;;;;;177.93;101.75;;;;;;;6.03;83.21;94787.34;1626437;87;21056;-44
2022/12/25 08:07:44;;;;;;;148.43;94.17;;;;;;;6.13;83.03;94791.85;1643005;86;21002;-42
2022/12/25 08:10:11;;;;;;;142.60;89.95;;;;;;;6.20;83.04;94793.08;1642365;86;21110;-44
2022/12/25 08:12:38;;;;;;;121.65;72.25;;;;;;;6.31;82.86;94796.41;1646323;85;21237;-43
2022/12/25 08:15:07;;;;;;;109.75;68.90;;;;;;;6.42;82.43;94799.11;1650416;85;20998;-43
2022/12/25 08:17:35;;;;;;;109.22;67.10;;;;;;;6.44;82.05;94793.20;1675603;82;21081;-44
2022/12/25 08:20:02;;;;;;;110.17;67.90;;;;;;;6.45;81.73;94801.58;1720512;82;21132;-44
2022/12/25 08:22:29;;;;;;;120.42;73.60;;;;;;;6.47;81.57;94804.66;1730375;81;21113;-47
2022/12/25 08:24:56;;;;;;;118.75;74.82;;;;;;;6.49;81.39;94811.27;1704215;82;21129;-44
2022/12/25 08:27:23;;;;;;;123.15;78.67;;;;;;;6.52;81.48;94804.20;1722898;81;21030;-43
2022/12/25 08:29:51;;;;;;;149.62;93.33;;;;;;;6.55;81.40;94801.98;1722095;81;21005;-45
2022/12/25 08:32:19;;;;;;;145.80;90.67;;;;;;;6.53;81.14;94803.00;1728732;82;21196;-43
2022/12/25 08:34:46;;;;;;;147.62;93.20;;;;;;;6.50;80.86;94799.14;1739268;81;21126;-44
2022/12/25 08:37:13;;;;;;;173.53;105.80;;;;;;;6.52;81.04;94804.20;1738866;81;21029;-43
2022/12/25 08:39:42;;;;;;;183.15;113.22;;;;;;;6.57;80.94;94811.32;1742164;80;21060;-45
2022/12/25 08:42:10;;;;;;;199.27;111.40;;;;;;;6.63;80.87;94804.16;1760318;80;20970;-44
2022/12/25 08:44:37;;;;;;;169.35;103.25;;;;;;;6.69;81.03;94811.28;1758765;80;21444;-44
2022/12/25 08:47:04;;;;;;;155.78;96.30;;;;;;;6.76;81.10;94809.77;1757981;80;21086;-43
2022/12/25 08:49:32;;;;;;;118.02;73.62;;;;;;;6.82;81.20;94819.80;1779873;79;21009;-43
2022/12/25 08:52:00;;;;;;;104.72;66.45;;;;;;;6.95;81.10;94819.92;1759515;80;21002;-43
2022/12/25 08:54:27;;;;;;;118.90;79.97;;;;;;;7.05;80.35;94816.97;1761742;80;21518;-43
2022/12/25 08:56:55;;;;;;;116.93;71.90;;;;;;;7.09;79.65;94812.19;1756686;80;21118;-43
2022/12/25 08:59:22;;;;;;;133.50;75.67;;;;;;;7.14;79.27;94813.84;1785321;80;21839;-44
2022/12/25 09:01:49;;;;;;;153.27;92.40;;;;;;;7.16;79.06;94818.28;1761456;80;21503;-44
2022/12/25 09:04:16;;;;;;;133.72;83.87;;;;;;;7.22;78.85;94823.45;1772537;79;20938;-44
2022/12/25 09:06:42;;;;;;;129.95;80.47;;;;;;;7.27;78.45;94827.05;1753911;79;21098;-44
2022/12/25 09:09:09;;;;;;;196.22;96.97;;;;;;;7.32;78.58;94827.16;1773569;79;21449;-43
2022/12/25 09:11:38;;;;;;;180.45;96.55;;;;;;;7.41;78.24;94832.22;1758880;79;21141;-42
2022/12/25 09:14:05;;;;;;;255.92;135.40;;;;;;;7.58;77.47;94825.58;1758698;80;21108;-45
2022/12/25 09:16:33;;;;;;;175.38;95.07;;;;;;;7.74;76.72;94834.41;1729706;81;20986;-44
2022/12/25 09:19:00;;;;;;;91.90;54.93;;;;;;;7.91;76.08;94831.23;1773989;80;21029;-43
2022/12/25 09:21:28;;;;;;;86.53;53.30;;;;;;;8.08;75.20;94843.73;1746603;80;21687;-44
2022/12/25 09:23:55;;;;;;;86.78;54.48;;;;;;;8.19;74.20;94842.14;1730655;82;21212;-44
2022/12/25 09:26:23;;;;;;;87.33;55.50;;;;;;;8.26;73.64;94839.23;1719700;81;21531;-43
2022/12/25 09:28:51;;;;;;;94.80;57.17;;;;;;;8.29;73.35;94834.27;1723220;82;20994;-43
2022/12/25 09:31:19;;;;;;;86.82;52.90;;;;;;;8.30;73.16;94844.02;1723933;81;21091;-43
2022/12/25 09:33:46;;;;;;;79.05;52.88;;;;;;;8.28;73.11;94841.70;1690186;83;21084;-45
2022/12/25 09:36:14;;;;;;;102.12;62.38;;;;;;;8.29;73.49;94836.39;1760702;80;21222;-43
2022/12/25 09:38:41;;;;;;;133.93;77.15;;;;;;;8.37;73.59;94839.14;1765124;80;20966;-44
2022/12/25 09:41:28;;;;;;;40.50;26.85;;;;;;;8.39;72.98;94840.84;1775454;80;21005;-43
2022/12/25 09:44:03;;;;;;;77.85;50.05;;;;;;;8.40;72.16;94844.37;1770761;80;21116;-43
2022/12/25 09:46:41;;;;;;;43.00;25.62;;;;;;;8.35;71.42;94844.28;1752932;79;21087;-44
2022/12/25 09:49:22;;;;;;;9.70;7.50;;;;;;;8.31;69.90;94841.45;1759293;80;21148;-44
2022/12/25 09:51:54;;;;;;;6.42;5.83;;;;;;;8.25;67.62;94863.12;1762886;80;21517;-43
2022/12/25 09:54:33;;;;;;;5.08;4.65;;;;;;;8.23;66.98;94869.63;1761694;79;21467;-42
2022/12/25 09:56:59;;;;;;;4.72;4.17;;;;;;;8.14;66.17;94874.92;1771745;79;21077;-43
2022/12/25 09:59:26;;;;;;;5.35;4.85;;;;;;;8.08;65.98;94873.12;1749032;80;21449;-43
2022/12/25 10:02:24;;;;;;;7.92;5.40;;;;;;;8.04;66.72;94877.30;1780159;80;21749;-43
2022/12/25 10:05:32;;;;;;;6.62;5.10;;;;;;;8.09;67.59;94876.78;1790974;78;21017;-47
2022/12/25 10:08:22;;;;;;;6.53;5.12;;;;;;;8.18;67.52;94874.84;1791873;79;20958;-45
2022/12/25 10:10:58;;;;;;;5.78;5.22;;;;;;;8.17;66.94;94878.17;1806676;78;21064;-45
2022/12/25 10:13:53;;;;;;;12.88;9.30;;;;;;;8.18;67.21;94879.74;1793539;79;21040;-43
2022/12/25 10:17:03;;;;;;;11.50;8.73;;;;;;;8.19;67.79;94881.28;1798006;79;21219;-43
2022/12/25 10:20:06;;;;;;;5.58;4.75;;;;;;;8.26;67.94;94885.21;1818535;78;21494;-43
2022/12/25 10:22:43;;;;;;;6.47;4.60;;;;;;;8.35;67.98;94893.62;1798692;78;20954;-44
2022/12/25 10:25:19;;;;;;;6.67;5.78;;;;;;;8.38;67.63;94884.53;1807155;78;21014;-43
2022/12/25 10:27:51;;;;;;;6.62;6.03;;;;;;;8.41;68.00;94892.51;1815732;78;20970;-43
2022/12/25 10:30:21;;;;;;;5.15;4.60;;;;;;;8.48;67.46;94892.32;1792454;78;21383;-42
2022/12/25 10:32:48;;;;;;;13.32;11.50;;;;;;;8.52;66.61;94892.41;1793821;79;20998;-45
2022/12/25 10:35:17;;;;;;;8.23;7.35;;;;;;;8.60;66.55;94890.27;1791983;79;20955;-43
2022/12/25 10:38:00;;;;;;;5.83;5.28;;;;;;;8.66;66.27;94882.42;1813870;79;20958;-43
2022/12/25 10:41:06;;;;;;;5.75;5.15;;;;;;;8.67;65.86;94886.73;1798924;78;20961;-44
2022/12/25 10:43:41;;;;;;;5.47;4.97;;;;;;;8.65;65.52;94893.84;1800521;79;21829;-43
2022/12/25 10:46:12;;;;;;;5.30;4.90;;;;;;;8.66;65.80;94886.54;1787813;79;20985;-44
2022/12/25 10:48:53;;;;;;;7.80;7.00;;;;;;;8.83;65.86;94893.54;1811127;79;21009;-42
2022/12/25 10:51:34;;;;;;;20.97;13.45;;;;;;;8.97;64.13;94886.31;1770213;80;21022;-43
2022/12/25 10:54:05;;;;;;;17.45;10.45;;;;;;;8.95;64.76;94888.72;1733811;82;21890;-44
2022/12/25 10:56:32;;;;;;;8.50;6.87;;;;;;;8.92;64.55;94890.34;1696154;82;21144;-43
2022/12/25 10:59:09;;;;;;;20.92;12.88;;;;;;;8.92;65.39;94885.48;1717299;82;21500;-44
2022/12/25 11:01:36;;;;;;;10.55;9.00;;;;;;;8.96;65.20;94893.00;1707121;82;21068;-44
2022/12/25 11:04:03;;;;;;;8.38;6.70;;;;;;;9.02;64.79;94892.63;1690471;82;21051;-43
2022/12/25 11:06:31;;;;;;;9.13;7.42;;;;;;;9.02;64.37;94885.77;1722012;82;20991;-44
2022/12/25 11:09:00;;;;;;;14.70;10.05;;;;;;;9.08;64.72;94884.06;1727859;82;21500;-44
2022/12/25 11:11:28;;;;;;;10.72;7.83;;;;;;;9.17;64.51;94890.45;1721253;82;21073;-44
2022/12/25 11:14:00;;;;;;;13.50;9.23;;;;;;;9.27;64.02;94888.63;1717029;82;21039;-45
2022/12/25 11:16:37;;;;;;;15.08;11.12;;;;;;;9.33;64.09;94895.89;1681884;84;21042;-43
2022/12/25 11:19:26;;;;;;;10.00;8.03;;;;;;;9.37;63.96;94894.40;1676639;85;21565;-43
2022/12/25 11:21:58;;;;;;;8.00;6.42;;;;;;;9.37;64.13;94901.27;1602880;88;21818;-43
2022/12/25 11:24:30;;;;;;;12.73;9.05;;;;;;;9.40;64.41;94903.16;1505963;92;20915;-44
2022/12/25 11:27:01;;;;;;;15.55;10.70;;;;;;;9.43;65.14;94902.29;1522640;92;21061;-44
2022/12/25 11:29:43;;;;;;;13.95;9.98;;;;;;;9.40;66.16;94900.42;1477244;95;21204;-45
2022/12/25 11:32:18;;;;;;;14.45;10.53;;;;;;;9.39;67.08;94900.22;1478721;95;21101;-43
2022/12/25 11:34:47;;;;;;;12.75;9.00;;;;;;;9.32;67.68;94914.16;1468659;94;21227;-42
2022/12/25 11:37:25;;;;;;;12.75;9.15;;;;;;;9.24;68.43;94912.83;1458644;95;21633;-44
2022/12/25 11:39:52;;;;;;;10.23;8.45;;;;;;;9.13;69.03;94921.94;1464400;95;21792;-44
2022/12/25 11:42:34;;;;;;;13.90;10.05;;;;;;;9.01;69.60;94931.66;1461372;95;21204;-43
2022/12/25 11:45:07;;;;;;;8.33;7.00;;;;;;;8.87;70.26;94931.27;1469484;96;21159;-43
2022/12/25 11:48:05;;;;;;;16.73;9.98;;;;;;;8.76;70.71;94926.66;1425621;98;22032;-44
2022/12/25 11:50:45;;;;;;;7.08;4.97;;;;;;;8.63;71.52;94935.40;1380665;103;21283;-44
2022/12/25 11:53:23;;;;;;;6.58;5.72;;;;;;;8.48;71.74;94939.72;1382721;103;21173;-43
2022/12/25 11:55:56;;;;;;;12.78;9.08;;;;;;;8.36;72.30;94940.39;1385538;103;21121;-44
2022/12/25 11:58:36;;;;;;;21.45;13.70;;;;;;;8.33;73.07;94933.02;1393884;101;21133;-46
2022/12/25 12:01:18;;;;;;;23.55;13.20;;;;;;;8.35;73.92;94943.55;1381266;101;21423;-48
2022/12/25 12:03:45;;;;;;;15.28;10.95;;;;;;;8.35;74.71;94947.66;1354173;103;21190;-43
2022/12/25 12:06:50;;;;;;;13.28;9.95;;;;;;;8.40;75.12;94954.02;1349757;104;21133;-44
2022/12/25 12:09:56;;;;;;;15.65;10.23;;;;;;;8.49;74.74;94954.17;1361496;103;21101;-44
2022/12/25 12:12:32;;;;;;;11.20;8.63;;;;;;;8.49;74.52;94971.41;1371769;103;21223;-44
2022/12/25 12:15:30;;;;;;;15.25;10.20;;;;;;;8.48;74.11;94972.61;1328613;106;22237;-42
2022/12/25 12:18:27;;;;;;;5.25;4.58;;;;;;;8.44;74.31;94969.16;1334770;105;21589;-44
2022/12/25 12:21:02;;;;;;;10.00;8.25;;;;;;;8.44;74.31;94977.38;1330980;106;21188;-45
2022/12/25 12:23:35;;;;;;;8.00;7.20;;;;;;;8.47;74.38;94982.01;1325715;107;21385;-43
2022/12/25 12:26:03;;;;;;;7.25;5.97;;;;;;;8.49;74.51;94986.49;1309131;108;21183;-45
2022/12/25 12:28:35;;;;;;;10.80;6.87;;;;;;;8.54;74.48;94990.09;1296166;108;21277;-44
2022/12/25 12:31:06;;;;;;;;;;;;;;;8.61;74.44;94989.91;1292614;109;21188;-45
2022/12/25 12:33:38;;;;;;;21.90;15.10;;;;;;;8.59;74.68;94996.42;1303095;109;20167;-44
2022/12/25 12:36:07;;;;;;;125.15;72.67;;;;;;;8.62;74.88;95004.41;1311991;108;21155;-43
2022/12/25 12:38:34;;;;;;;53.55;32.70;;;;;;;8.57;75.10;94998.82;1303626;107;21173;-43
2022/12/25 12:41:06;;;;;;;55.98;32.53;;;;;;;8.51;75.53;95006.61;1324421;104;22009;-46
2022/12/25 12:43:47;;;;;;;34.13;22.58;;;;;;;8.45;76.11;95003.59;1339177;102;21224;-45
2022/12/25 12:46:25;;;;;;;24.57;15.10;;;;;;;8.45;76.28;95008.33;1368015;102;21376;-45
2022/12/25 12:48:54;;;;;;;19.48;11.90;;;;;;;8.47;76.69;95012.16;1317204;106;21124;-45
2022/12/25 12:51:30;;;;;;;21.23;14.53;;;;;;;8.53;76.92;95013.22;1319211;106;21083;-42
2022/12/25 12:54:31;;;;;;;17.07;11.30;;;;;;;8.61;77.08;95011.09;1336656;105;21215;-43
2022/12/25 12:57:05;;;;;;;14.65;9.98;;;;;;;8.61;76.69;95004.23;1329101;105;21219;-44
2022/12/25 12:59:42;;;;;;;15.68;11.30;;;;;;;8.53;76.99;95011.84;1332225;105;21276;-45
2022/12/25 15:03:20;;;;;;;63.02;34.35;;;;;;;4.39;84.98;95073.70;1818252;77;26278;-44
2022/12/25 15:06:02;;;;;;;58.13;32.35;;;;;;;4.32;85.43;95081.94;1795099;78;21568;-44
2022/12/25 15:08:31;;;;;;;65.42;35.83;;;;;;;4.35;85.92;95083.86;1776508;78;21253;-46
2022/12/25 15:10:57;;;;;;;76.22;40.25;;;;;;;4.39;85.92;95081.88;1804745;78;21498;-44
2022/12/25 15:13:24;;;;;;;70.85;41.85;;;;;;;4.40;85.91;95085.39;1798737;78;21041;-43
2022/12/25 15:16:11;;;;;;;89.87;53.78;;;;;;;4.41;86.12;95086.34;1798962;78;21537;-44
2022/12/25 15:18:40;;;;;;;91.82;53.83;;;;;;;4.38;86.10;95091.23;1612078;88;21490;-44
2022/12/25 15:21:27;;;;;;;81.47;48.23;;;;;;;4.41;86.66;95095.88;1607902;87;21783;-43
2022/12/25 15:23:54;;;;;;;84.92;49.77;;;;;;;4.46;86.70;95094.08;1585973;90;21679;-44
2022/12/25 15:26:22;;;;;;;303.40;185.78;;;;;;;4.57;86.98;95099.48;1602339;89;21185;-43
2022/12/25 15:28:49;;;;;;;188.10;114.05;;;;;;;4.63;86.70;95099.23;1619109;87;21646;-43
2022/12/25 15:31:26;;;;;;;105.78;65.55;;;;;;;4.64;86.74;95103.51;1622823;87;21010;-43
2022/12/25 15:33:54;;;;;;;78.30;50.73;;;;;;;4.68;86.97;95107.77;1621234;87;21276;-43
2022/12/25 15:36:22;;;;;;;67.10;40.30;;;;;;;4.75;86.93;95104.21;1616348;88;21133;-43
2022/12/25 15:38:49;;;;;;;84.47;49.35;;;;;;;4.78;86.44;95113.70;1623597;87;21152;-43
2022/12/25 15:44:16;;;;;;;210.90;118.85;;;;;;;4.72;85.81;95112.59;1619355;87;21080;-42
2022/12/25 15:46:44;;;;;;;199.70;116.15;;;;;;;4.66;85.98;95103.30;1620369;87;21114;-44
2022/12/25 15:49:15;;;;;;;189.13;107.30;;;;;;;4.62;86.12;95105.26;1621297;87;21174;-43
2022/12/25 15:51:42;;;;;;;172.55;94.30;;;;;;;4.56;86.25;95105.50;1625556;87;21073;-44
2022/12/25 15:54:10;;;;;;;179.07;94.72;;;;;;;4.51;86.13;95105.14;1619830;87;21018;-43
2022/12/25 15:56:49;;;;;;;159.60;82.17;;;;;;;4.49;86.18;95111.01;1625082;86;21203;-43
2022/12/25 15:59:18;;;;;;;151.55;80.62;;;;;;;4.47;85.80;95107.91;1665858;84;21123;-47
2022/12/25 16:01:48;;;;;;;140.55;78.15;;;;;;;4.39;85.58;95119.25;1646294;85;21111;-44
2022/12/25 16:04:16;;;;;;;177.15;88.40;;;;;;;4.34;85.91;95117.72;1713498;83;20985;-45
2022/12/25 16:06:43;;;;;;;252.28;135.48;;;;;;;4.31;85.76;95119.88;1698101;83;21052;-42
2022/12/25 16:09:11;;;;;;;259.57;122.20;;;;;;;4.26;85.97;95121.63;1707386;83;20974;-43
2022/12/25 16:11:39;;;;;;;218.78;121.10;;;;;;;4.27;86.43;95125.91;1691376;83;21181;-45
2022/12/25 16:14:06;;;;;;;180.10;95.70;;;;;;;4.26;86.11;95129.80;1746821;81;21806;-43
2022/12/25 16:16:34;;;;;;;175.47;92.70;;;;;;;4.26;85.98;95134.48;1761513;79;21500;-44
2022/12/25 16:19:01;;;;;;;144.35;75.90;;;;;;;4.27;85.76;95136.80;1730028;80;21037;-42
2022/12/25 16:21:40;;;;;;;175.05;94.55;;;;;;;4.28;85.54;95138.34;1724346;81;21545;-44
2022/12/25 16:24:08;;;;;;;220.93;109.85;;;;;;;4.28;85.36;95127.45;1665749;83;21292;-42
2022/12/25 16:26:37;;;;;;;322.67;158.30;;;;;;;4.30;85.41;95140.69;1676712;84;21047;-44
2022/12/25 16:29:05;;;;;;;270.63;136.25;;;;;;;4.30;85.36;95125.13;1683842;84;20996;-42
2022/12/25 16:31:33;;;;;;;228.15;111.90;;;;;;;4.33;85.35;95131.72;1681054;84;21917;-44
2022/12/25 16:34:00;;;;;;;232.85;112.95;;;;;;;4.29;84.99;95129.03;1688334;84;21462;-43
2022/12/25 16:36:28;;;;;;;225.40;109.10;;;;;;;4.21;84.52;95126.74;1638279;85;21396;-42
2022/12/25 16:38:56;;;;;;;342.70;161.20;;;;;;;4.11;84.59;95128.34;1639636;86;21085;-44
2022/12/25 16:41:24;;;;;;;225.93;113.42;;;;;;;4.05;84.74;95131.27;1685817;84;21458;-44